Time;durP1;ratioP1;P1;durP2;ratioP2;P2;SDS_P1;SDS_P2;PMS_P1;PMS_P2;Temp;Humidity;BMP_temperature;BMP_pressure;BME280_temperature;BME280_humidity;BME280_pressure;Samples;Min_cycle;Max_cycle;Signal;HPM_P1;HPM_P2
2020/08/27 00:00:29;;;;;;;2.11;1.23;;;;;;;22.57;65.21;100663.82;;;;-47
2020/08/27 00:03:29;;;;;;;1.69;1.20;;;;;;;22.57;65.24;100669.14;;;;-46
2020/08/27 00:06:29;;;;;;;1.37;1.23;;;;;;;22.56;65.19;100668.39;;;;-47
2020/08/27 00:09:29;;;;;;;1.56;1.25;;;;;;;22.56;65.21;100664.98;;;;-46
2020/08/27 00:12:30;;;;;;;1.70;1.28;;;;;;;22.56;65.22;100660.72;;;;-47
2020/08/27 00:15:29;;;;;;;1.69;1.22;;;;;;;22.55;65.20;100662.20;;;;-47
2020/08/27 00:18:29;;;;;;;2.36;1.17;;;;;;;22.55;65.24;100671.91;;;;-47
2020/08/27 00:21:29;;;;;;;1.36;1.26;;;;;;;22.55;65.20;100671.52;;;;-47
2020/08/27 00:24:29;;;;;;;1.18;1.08;;;;;;;22.54;65.25;100663.50;;;;-46
2020/08/27 00:27:29;;;;;;;1.39;1.15;;;;;;;22.54;65.25;100671.61;;;;-46
2020/08/27 00:30:29;;;;;;;1.46;1.05;;;;;;;22.52;65.25;100668.02;;;;-47
2020/08/27 00:33:30;;;;;;;1.33;1.22;;;;;;;22.53;65.22;100666.94;;;;-47
2020/08/27 00:36:29;;;;;;;1.78;1.20;;;;;;;22.52;65.25;100670.71;;;;-46
2020/08/27 00:39:29;;;;;;;1.31;1.13;;;;;;;22.52;65.22;100667.52;;;;-47
2020/08/27 00:42:29;;;;;;;1.36;1.20;;;;;;;22.51;65.27;100668.81;;;;-46
2020/08/27 00:45:29;;;;;;;2.21;1.20;;;;;;;22.51;65.26;100665.88;;;;-47
2020/08/27 00:48:30;;;;;;;1.51;1.11;;;;;;;22.52;65.22;100659.77;;;;-47
2020/08/27 00:51:29;;;;;;;1.29;1.19;;;;;;;22.51;65.25;100654.78;;;;-46
2020/08/27 00:54:29;;;;;;;1.39;1.20;;;;;;;22.50;65.23;100655.28;;;;-47
2020/08/27 00:57:29;;;;;;;1.89;1.16;;;;;;;22.50;65.23;100658.63;;;;-47
2020/08/27 01:00:29;;;;;;;1.77;1.32;;;;;;;22.49;65.23;100659.62;;;;-46
2020/08/27 01:03:29;;;;;;;1.27;1.17;;;;;;;22.49;65.29;100655.70;;;;-47
2020/08/27 01:06:29;;;;;;;2.67;1.15;;;;;;;22.49;65.28;100653.30;;;;-47
2020/08/27 01:09:29;;;;;;;1.20;1.10;;;;;;;22.49;65.27;100662.30;;;;-46
2020/08/27 01:12:29;;;;;;;2.41;1.29;;;;;;;22.48;65.25;100659.77;;;;-47
2020/08/27 01:15:29;;;;;;;2.08;1.15;;;;;;;22.48;65.25;100657.24;;;;-47
2020/08/27 01:18:29;;;;;;;1.29;1.19;;;;;;;22.48;65.28;100658.07;;;;-46
2020/08/27 01:21:29;;;;;;;1.39;1.20;;;;;;;22.48;65.24;100658.47;;;;-46
2020/08/27 01:24:29;;;;;;;1.18;1.08;;;;;;;22.48;65.25;100663.38;;;;-47
2020/08/27 01:27:29;;;;;;;1.19;1.09;;;;;;;22.47;65.29;100666.55;;;;-46
2020/08/27 01:30:29;;;;;;;1.71;1.17;;;;;;;22.47;65.27;100671.44;;;;-47
2020/08/27 01:33:29;;;;;;;1.53;1.25;;;;;;;22.46;65.27;100673.91;;;;-47
2020/08/27 01:36:29;;;;;;;1.45;1.30;;;;;;;22.47;65.25;100679.62;;;;-46
2020/08/27 01:39:29;;;;;;;1.47;1.11;;;;;;;22.46;65.26;100674.23;;;;-47
2020/08/27 01:42:29;;;;;;;1.75;1.30;;;;;;;22.46;65.28;100670.24;;;;-47
2020/08/27 01:45:29;;;;;;;1.17;1.05;;;;;;;22.46;65.27;100668.36;;;;-47
2020/08/27 01:48:29;;;;;;;1.23;1.13;;;;;;;22.45;65.21;100667.31;;;;-47
2020/08/27 01:51:29;;;;;;;1.43;1.17;;;;;;;22.45;65.26;100670.73;;;;-47
2020/08/27 01:54:30;;;;;;;1.17;1.09;;;;;;;22.45;65.25;100674.66;;;;-46
2020/08/27 01:57:29;;;;;;;1.37;1.20;;;;;;;22.45;65.27;100672.53;;;;-46
2020/08/27 02:00:29;;;;;;;1.45;1.21;;;;;;;22.45;65.27;100668.29;;;;-47
2020/08/27 02:03:29;;;;;;;1.53;1.15;;;;;;;22.45;65.24;100663.13;;;;-47
2020/08/27 02:06:29;;;;;;;1.22;1.12;;;;;;;22.44;65.26;100661.02;;;;-47
2020/08/27 02:09:29;;;;;;;1.20;1.10;;;;;;;22.44;65.28;100658.33;;;;-47
2020/08/27 02:12:29;;;;;;;1.64;1.09;;;;;;;22.44;65.28;100653.91;;;;-46
2020/08/27 02:15:29;;;;;;;1.23;1.13;;;;;;;22.44;65.25;100653.34;;;;-46
2020/08/27 02:18:29;;;;;;;1.38;1.19;;;;;;;22.44;65.27;100651.30;;;;-47
2020/08/27 02:21:29;;;;;;;1.25;1.14;;;;;;;22.44;65.27;100649.02;;;;-46
2020/08/27 02:24:29;;;;;;;1.39;1.20;;;;;;;22.43;65.25;100638.46;;;;-47
2020/08/27 02:27:29;;;;;;;1.06;1.01;;;;;;;22.42;65.19;100632.44;;;;-47
2020/08/27 02:30:29;;;;;;;1.70;1.10;;;;;;;22.42;65.26;100626.88;;;;-47
2020/08/27 02:33:29;;;;;;;1.31;1.13;;;;;;;22.43;65.24;100615.11;;;;-46
2020/08/27 02:36:29;;;;;;;1.30;1.16;;;;;;;22.42;65.27;100611.62;;;;-47
2020/08/27 02:39:29;;;;;;;1.25;1.11;;;;;;;22.42;65.30;100612.59;;;;-47
2020/08/27 02:42:29;;;;;;;1.54;1.30;;;;;;;22.42;65.21;100605.66;;;;-46
2020/08/27 02:45:29;;;;;;;1.23;1.13;;;;;;;22.42;65.17;100603.53;;;;-46
2020/08/27 02:48:29;;;;;;;1.22;1.10;;;;;;;22.41;65.23;100608.85;;;;-47
2020/08/27 02:51:29;;;;;;;1.40;1.17;;;;;;;22.41;65.23;100605.23;;;;-47
2020/08/27 02:54:29;;;;;;;2.07;1.12;;;;;;;22.40;65.23;100613.00;;;;-47
2020/08/27 02:57:29;;;;;;;1.20;1.10;;;;;;;22.41;65.30;100617.48;;;;-47
2020/08/27 03:00:37;;;;;;;1.05;1.05;;;;;;;22.41;65.31;100617.72;;;;-46
2020/08/27 03:03:29;;;;;;;1.44;1.20;;;;;;;22.40;65.24;100621.09;;;;-46
2020/08/27 03:06:29;;;;;;;1.20;1.10;;;;;;;22.39;65.26;100620.78;;;;-46
2020/08/27 03:09:29;;;;;;;1.30;1.20;;;;;;;22.40;65.27;100623.71;;;;-46
2020/08/27 03:12:29;;;;;;;1.50;1.20;;;;;;;22.39;65.24;100613.08;;;;-47
2020/08/27 03:15:29;;;;;;;1.22;1.05;;;;;;;22.38;65.33;100604.52;;;;-46
2020/08/27 03:18:29;;;;;;;1.65;1.20;;;;;;;22.39;65.29;100601.48;;;;-47
2020/08/27 03:21:29;;;;;;;1.20;1.10;;;;;;;22.38;65.28;100603.04;;;;-47
2020/08/27 03:24:29;;;;;;;1.33;1.20;;;;;;;22.38;65.26;100607.13;;;;-46
2020/08/27 03:27:29;;;;;;;1.20;1.10;;;;;;;22.37;65.34;100611.97;;;;-47
2020/08/27 03:30:29;;;;;;;1.01;1.00;;;;;;;22.37;65.33;100610.82;;;;-47
2020/08/27 03:33:29;;;;;;;1.30;1.20;;;;;;;22.38;65.32;100607.22;;;;-47
2020/08/27 03:36:29;;;;;;;1.23;1.03;;;;;;;22.37;65.27;100602.49;;;;-46
2020/08/27 03:39:29;;;;;;;1.33;1.23;;;;;;;22.37;65.31;100596.83;;;;-47
2020/08/27 03:42:29;;;;;;;1.44;1.21;;;;;;;22.36;65.30;100589.17;;;;-47
2020/08/27 03:45:29;;;;;;;1.33;1.11;;;;;;;22.36;65.29;100592.69;;;;-47
2020/08/27 03:48:29;;;;;;;1.33;1.23;;;;;;;22.36;65.33;100603.22;;;;-46
2020/08/27 03:51:29;;;;;;;1.20;1.10;;;;;;;22.36;65.33;100603.30;;;;-47
2020/08/27 03:54:29;;;;;;;1.20;1.10;;;;;;;22.36;65.22;100604.11;;;;-47
2020/08/27 03:57:29;;;;;;;1.23;1.13;;;;;;;22.35;65.28;100603.05;;;;-46
2020/08/27 04:00:30;;;;;;;1.21;1.11;;;;;;;22.35;65.29;100603.55;;;;-47
2020/08/27 04:03:29;;;;;;;1.41;1.10;;;;;;;22.35;65.26;100599.56;;;;-46
2020/08/27 04:06:29;;;;;;;1.84;1.16;;;;;;;22.35;65.34;100598.39;;;;-47
2020/08/27 04:09:29;;;;;;;1.95;1.20;;;;;;;22.34;65.25;100593.58;;;;-46
2020/08/27 04:12:29;;;;;;;1.13;1.05;;;;;;;22.35;65.35;100600.59;;;;-47
2020/08/27 04:15:29;;;;;;;1.39;1.20;;;;;;;22.34;65.24;100593.09;;;;-46
2020/08/27 04:18:29;;;;;;;1.45;1.08;;;;;;;22.34;65.31;100590.16;;;;-46
2020/08/27 04:21:29;;;;;;;1.03;1.01;;;;;;;22.33;65.29;100594.72;;;;-47
2020/08/27 04:24:29;;;;;;;1.31;1.19;;;;;;;22.33;65.25;100601.61;;;;-46
2020/08/27 04:27:29;;;;;;;1.22;1.10;;;;;;;22.34;65.24;100601.76;;;;-46
2020/08/27 04:30:30;;;;;;;1.47;1.21;;;;;;;22.33;65.31;100601.25;;;;-46
2020/08/27 04:33:29;;;;;;;1.29;1.19;;;;;;;22.33;65.31;100606.16;;;;-46
2020/08/27 04:36:29;;;;;;;1.23;1.13;;;;;;;22.33;65.30;100606.08;;;;-46
2020/08/27 04:39:29;;;;;;;1.19;1.09;;;;;;;22.32;65.40;100603.64;;;;-46
2020/08/27 04:42:29;;;;;;;1.23;1.13;;;;;;;22.32;65.32;100607.88;;;;-46
2020/08/27 04:45:29;;;;;;;1.28;1.18;;;;;;;22.32;65.28;100610.41;;;;-47
2020/08/27 04:48:29;;;;;;;1.29;1.19;;;;;;;22.33;65.33;100612.47;;;;-50
2020/08/27 04:51:29;;;;;;;1.90;1.13;;;;;;;22.32;65.33;100617.52;;;;-51
2020/08/27 04:54:29;;;;;;;1.17;1.10;;;;;;;22.32;65.38;100622.74;;;;-50
2020/08/27 04:57:29;;;;;;;1.24;1.14;;;;;;;22.32;65.41;100623.89;;;;-47
2020/08/27 05:00:29;;;;;;;1.08;1.07;;;;;;;22.32;65.42;100627.97;;;;-49
2020/08/27 05:03:29;;;;;;;1.24;1.14;;;;;;;22.32;65.39;100630.92;;;;-51
2020/08/27 05:06:29;;;;;;;1.30;1.20;;;;;;;22.31;65.38;100641.78;;;;-50
2020/08/27 05:09:29;;;;;;;1.16;1.05;;;;;;;22.31;65.42;100636.55;;;;-47
2020/08/27 05:14:29;;;;;;;1.19;1.09;;;;;;;22.31;65.35;100630.52;;;;-51
2020/08/27 05:17:29;;;;;;;5.12;1.37;;;;;;;22.30;65.33;100633.85;;;;-51
2020/08/27 05:20:29;;;;;;;1.54;1.29;;;;;;;22.29;65.39;100638.69;;;;-50
2020/08/27 05:23:29;;;;;;;3.13;1.20;;;;;;;22.30;65.34;100639.64;;;;-51
2020/08/27 05:26:29;;;;;;;2.65;1.19;;;;;;;22.30;65.34;100637.52;;;;-50
2020/08/27 05:29:29;;;;;;;2.09;1.20;;;;;;;22.29;65.28;100635.74;;;;-46
2020/08/27 05:32:29;;;;;;;3.22;1.30;;;;;;;22.29;65.30;100626.69;;;;-47
2020/08/27 05:35:29;;;;;;;1.89;1.19;;;;;;;22.29;65.28;100626.27;;;;-47
2020/08/27 05:38:29;;;;;;;2.39;1.31;;;;;;;22.29;65.28;100626.45;;;;-46
2020/08/27 05:41:29;;;;;;;1.60;1.27;;;;;;;22.29;65.29;100627.98;;;;-46
2020/08/27 05:44:29;;;;;;;1.43;1.30;;;;;;;22.29;65.29;100633.86;;;;-51
2020/08/27 05:47:29;;;;;;;2.41;1.12;;;;;;;22.29;65.29;100634.52;;;;-51
2020/08/27 05:50:29;;;;;;;1.32;1.14;;;;;;;22.28;65.34;100631.23;;;;-51
2020/08/27 05:53:29;;;;;;;1.59;1.30;;;;;;;22.28;65.26;100628.38;;;;-51
2020/08/27 05:56:29;;;;;;;2.25;1.33;;;;;;;22.29;65.35;100631.91;;;;-50
2020/08/27 05:59:29;;;;;;;1.31;1.20;;;;;;;22.28;65.26;100629.61;;;;-50
2020/08/27 06:02:29;;;;;;;3.76;1.43;;;;;;;22.28;65.24;100631.23;;;;-52
2020/08/27 06:05:29;;;;;;;4.19;1.44;;;;;;;22.27;65.29;100629.95;;;;-51
2020/08/27 06:08:29;;;;;;;2.63;1.26;;;;;;;22.28;65.35;100634.09;;;;-54
2020/08/27 06:11:29;;;;;;;1.53;1.24;;;;;;;22.28;65.35;100631.17;;;;-51
2020/08/27 06:14:29;;;;;;;1.55;1.30;;;;;;;22.28;65.36;100627.91;;;;-51
2020/08/27 06:17:29;;;;;;;2.99;1.40;;;;;;;22.27;65.33;100628.23;;;;-51
2020/08/27 06:20:29;;;;;;;2.71;1.27;;;;;;;22.27;65.33;100625.39;;;;-49
2020/08/27 06:23:29;;;;;;;1.51;1.20;;;;;;;22.26;65.30;100630.44;;;;-49
2020/08/27 06:26:29;;;;;;;2.77;1.30;;;;;;;22.26;65.35;100629.37;;;;-49
2020/08/27 06:29:29;;;;;;;2.46;1.37;;;;;;;22.26;65.38;100617.13;;;;-50
2020/08/27 06:32:29;;;;;;;1.25;1.10;;;;;;;22.25;65.32;100608.00;;;;-51
2020/08/27 06:35:29;;;;;;;1.36;1.26;;;;;;;22.26;65.34;100598.52;;;;-51
2020/08/27 06:38:29;;;;;;;1.39;1.29;;;;;;;22.25;65.38;100588.89;;;;-50
2020/08/27 06:41:29;;;;;;;1.36;1.26;;;;;;;22.25;65.35;100591.02;;;;-51
2020/08/27 06:44:29;;;;;;;1.62;1.14;;;;;;;22.25;65.36;100595.91;;;;-51
2020/08/27 06:47:29;;;;;;;1.49;1.17;;;;;;;22.25;65.38;100595.92;;;;-54
2020/08/27 06:50:29;;;;;;;1.84;1.20;;;;;;;22.24;65.39;100597.77;;;;-51
2020/08/27 06:53:29;;;;;;;1.55;1.22;;;;;;;22.24;65.40;100594.10;;;;-50
2020/08/27 06:56:29;;;;;;;1.68;1.23;;;;;;;22.25;65.36;100596.09;;;;-51
2020/08/27 06:59:29;;;;;;;2.71;1.25;;;;;;;22.24;65.37;100595.25;;;;-50
2020/08/27 07:02:29;;;;;;;2.53;1.19;;;;;;;22.24;65.34;100603.83;;;;-50
2020/08/27 07:05:29;;;;;;;1.30;1.20;;;;;;;22.24;65.34;100607.02;;;;-49
2020/08/27 07:08:29;;;;;;;1.69;1.20;;;;;;;22.25;65.37;100615.84;;;;-53
2020/08/27 07:11:29;;;;;;;2.57;1.20;;;;;;;22.24;65.36;100614.27;;;;-49
2020/08/27 07:14:29;;;;;;;1.30;1.20;;;;;;;22.24;65.44;100608.89;;;;-49
2020/08/27 07:17:29;;;;;;;1.45;1.20;;;;;;;22.22;65.41;100596.61;;;;-51
2020/08/27 07:20:29;;;;;;;3.00;1.11;;;;;;;22.23;65.46;100590.42;;;;-51
2020/08/27 07:23:29;;;;;;;1.37;1.25;;;;;;;22.23;65.37;100585.85;;;;-51
2020/08/27 07:26:29;;;;;;;2.01;1.21;;;;;;;22.22;65.34;100588.44;;;;-49
2020/08/27 07:29:29;;;;;;;1.40;1.28;;;;;;;22.23;65.39;100583.33;;;;-54
2020/08/27 07:32:29;;;;;;;1.78;1.20;;;;;;;22.23;65.35;100584.14;;;;-51
2020/08/27 07:35:29;;;;;;;1.20;1.10;;;;;;;22.22;65.40;100579.47;;;;-49
2020/08/27 07:38:29;;;;;;;2.10;1.19;;;;;;;22.23;65.44;100584.48;;;;-49
2020/08/27 07:41:29;;;;;;;1.39;1.16;;;;;;;22.22;65.42;100583.30;;;;-49
2020/08/27 07:44:29;;;;;;;1.20;1.08;;;;;;;22.22;65.39;100578.48;;;;-53
2020/08/27 07:47:29;;;;;;;1.35;1.20;;;;;;;22.21;65.41;100581.77;;;;-54
2020/08/27 07:50:29;;;;;;;1.41;1.18;;;;;;;22.22;65.37;100588.86;;;;-51
2020/08/27 07:53:29;;;;;;;1.45;1.20;;;;;;;22.21;65.37;100592.14;;;;-51
2020/08/27 07:56:29;;;;;;;1.58;1.24;;;;;;;22.21;65.42;100584.70;;;;-50
2020/08/27 07:59:29;;;;;;;1.89;1.30;;;;;;;22.22;65.35;100580.61;;;;-49
2020/08/27 08:02:29;;;;;;;2.90;1.44;;;;;;;22.19;64.03;100582.50;;;;-45
2020/08/27 08:05:29;;;;;;;5.36;1.77;;;;;;;22.14;62.87;100590.11;;;;-48
2020/08/27 08:08:29;;;;;;;5.31;2.16;;;;;;;22.12;62.74;100589.28;;;;-51
2020/08/27 08:11:29;;;;;;;5.71;1.83;;;;;;;22.10;62.55;100590.38;;;;-50
2020/08/27 08:14:29;;;;;;;4.93;2.03;;;;;;;22.09;62.43;100583.84;;;;-48
2020/08/27 08:17:29;;;;;;;6.25;2.19;;;;;;;22.07;61.87;100583.59;;;;-53
2020/08/27 08:20:29;;;;;;;5.03;2.12;;;;;;;22.09;62.08;100582.70;;;;-50
2020/08/27 08:23:29;;;;;;;5.75;2.30;;;;;;;22.09;61.54;100588.49;;;;-52
2020/08/27 08:26:29;;;;;;;4.37;2.27;;;;;;;22.09;61.60;100587.34;;;;-54
2020/08/27 08:29:29;;;;;;;5.63;2.21;;;;;;;22.08;61.57;100589.48;;;;-58
2020/08/27 08:32:29;;;;;;;5.55;2.37;;;;;;;22.08;61.55;100582.36;;;;-58
2020/08/27 08:35:29;;;;;;;3.55;2.27;;;;;;;22.09;61.27;100573.07;;;;-59
2020/08/27 08:38:29;;;;;;;5.33;2.17;;;;;;;22.10;60.70;100569.30;;;;-51
2020/08/27 08:41:29;;;;;;;6.47;2.29;;;;;;;22.12;61.01;100553.62;;;;-56
2020/08/27 08:44:29;;;;;;;4.68;2.15;;;;;;;22.18;61.88;100551.08;;;;-53
2020/08/27 08:47:29;;;;;;;4.68;2.11;;;;;;;22.21;61.90;100551.16;;;;-49
2020/08/27 08:50:29;;;;;;;4.96;2.13;;;;;;;22.24;62.15;100548.96;;;;-51
2020/08/27 08:53:29;;;;;;;8.55;2.11;;;;;;;22.26;62.30;100550.02;;;;-46
2020/08/27 08:56:29;;;;;;;4.94;2.19;;;;;;;22.29;62.57;100545.77;;;;-44
2020/08/27 08:59:29;;;;;;;6.63;2.17;;;;;;;22.32;62.74;100537.52;;;;-49
2020/08/27 09:02:29;;;;;;;5.01;2.12;;;;;;;22.34;62.88;100529.66;;;;-46
2020/08/27 09:05:29;;;;;;;3.72;2.00;;;;;;;22.35;63.07;100520.25;;;;-43
2020/08/27 09:08:29;;;;;;;3.84;1.99;;;;;;;22.37;63.13;100527.91;;;;-47
2020/08/27 09:11:29;;;;;;;5.58;1.97;;;;;;;22.39;63.27;100534.11;;;;-46
2020/08/27 09:14:29;;;;;;;2.81;1.75;;;;;;;22.39;63.35;100534.93;;;;-49
2020/08/27 09:17:29;;;;;;;4.07;2.00;;;;;;;22.41;63.50;100528.55;;;;-53
2020/08/27 09:20:29;;;;;;;4.85;2.19;;;;;;;22.43;63.56;100524.87;;;;-53
2020/08/27 09:23:29;;;;;;;3.65;2.14;;;;;;;22.44;63.57;100533.29;;;;-56
2020/08/27 09:26:29;;;;;;;4.47;2.03;;;;;;;22.45;63.71;100528.53;;;;-53
2020/08/27 09:29:29;;;;;;;4.15;1.80;;;;;;;22.47;63.79;100528.94;;;;-55
2020/08/27 09:32:29;;;;;;;5.09;1.89;;;;;;;22.48;63.84;100521.52;;;;-45
2020/08/27 09:35:29;;;;;;;3.71;1.80;;;;;;;22.49;63.86;100522.55;;;;-54
2020/08/27 09:38:29;;;;;;;3.64;1.91;;;;;;;22.50;63.95;100530.41;;;;-46
2020/08/27 09:41:29;;;;;;;6.83;1.91;;;;;;;22.50;64.01;100529.74;;;;-48
2020/08/27 09:44:29;;;;;;;2.75;1.71;;;;;;;22.51;64.01;100532.09;;;;-47
2020/08/27 09:47:29;;;;;;;3.64;1.71;;;;;;;22.52;64.07;100529.58;;;;-50
2020/08/27 09:50:29;;;;;;;6.82;1.97;;;;;;;22.54;63.99;100527.42;;;;-54
2020/08/27 09:53:29;;;;;;;6.85;2.08;;;;;;;22.54;64.08;100526.72;;;;-55
2020/08/27 09:56:29;;;;;;;4.87;1.99;;;;;;;22.53;64.02;100526.05;;;;-54
2020/08/27 09:59:29;;;;;;;6.84;1.97;;;;;;;22.52;64.08;100519.78;;;;-47
2020/08/27 10:02:29;;;;;;;6.71;2.07;;;;;;;22.52;64.10;100516.69;;;;-52
2020/08/27 10:05:29;;;;;;;5.98;1.87;;;;;;;22.52;63.97;100507.05;;;;-56
2020/08/27 10:08:29;;;;;;;6.55;2.01;;;;;;;22.52;63.98;100503.78;;;;-56
2020/08/27 10:11:29;;;;;;;4.78;1.80;;;;;;;22.51;63.95;100499.27;;;;-51
2020/08/27 10:14:29;;;;;;;4.81;2.06;;;;;;;22.51;63.94;100496.73;;;;-56
2020/08/27 10:17:29;;;;;;;3.85;1.91;;;;;;;22.51;63.97;100494.86;;;;-50
2020/08/27 10:20:29;;;;;;;7.52;2.04;;;;;;;22.51;63.98;100486.28;;;;-51
2020/08/27 10:23:29;;;;;;;4.75;2.19;;;;;;;22.50;63.96;100482.95;;;;-48
2020/08/27 10:26:29;;;;;;;3.07;1.63;;;;;;;22.50;63.98;100479.27;;;;-48
2020/08/27 10:29:29;;;;;;;3.93;1.95;;;;;;;22.51;63.91;100470.86;;;;-51
2020/08/27 10:32:29;;;;;;;7.47;1.87;;;;;;;22.51;63.99;100472.97;;;;-56
2020/08/27 10:35:29;;;;;;;3.68;1.87;;;;;;;22.49;64.03;100465.57;;;;-58
2020/08/27 10:38:29;;;;;;;4.40;1.81;;;;;;;22.50;63.98;100452.66;;;;-57
2020/08/27 10:41:29;;;;;;;3.07;1.81;;;;;;;22.50;63.96;100440.33;;;;-56
2020/08/27 10:44:29;;;;;;;4.33;1.86;;;;;;;22.50;64.02;100446.20;;;;-47
2020/08/27 10:47:29;;;;;;;3.31;1.84;;;;;;;22.50;63.98;100446.13;;;;-47
2020/08/27 10:50:29;;;;;;;2.74;1.61;;;;;;;22.51;63.99;100434.75;;;;-51
2020/08/27 10:53:29;;;;;;;4.46;1.80;;;;;;;22.50;63.97;100424.08;;;;-52
2020/08/27 10:56:29;;;;;;;2.99;1.59;;;;;;;22.50;63.96;100427.27;;;;-56
2020/08/27 10:59:29;;;;;;;2.86;1.83;;;;;;;22.50;64.05;100439.58;;;;-56
2020/08/27 11:02:29;;;;;;;3.71;1.83;;;;;;;22.51;63.97;100446.19;;;;-57
2020/08/27 11:05:29;;;;;;;2.47;1.84;;;;;;;22.51;64.02;100449.29;;;;-47
2020/08/27 11:08:30;;;;;;;6.32;1.80;;;;;;;22.50;64.09;100443.84;;;;-47
2020/08/27 11:11:29;;;;;;;4.83;1.88;;;;;;;22.52;64.26;100454.44;;;;-52
2020/08/27 11:14:29;;;;;;;6.28;2.01;;;;;;;22.55;64.36;100468.78;;;;-53
2020/08/27 11:17:29;;;;;;;6.75;1.94;;;;;;;22.57;64.19;100478.65;;;;-50
2020/08/27 11:20:29;;;;;;;7.46;1.97;;;;;;;22.61;64.17;100478.72;;;;-50
2020/08/27 11:23:29;;;;;;;3.89;1.70;;;;;;;22.62;64.17;100470.96;;;;-51
2020/08/27 11:26:29;;;;;;;8.11;1.93;;;;;;;22.63;64.23;100463.83;;;;-49
2020/08/27 11:29:29;;;;;;;10.95;2.01;;;;;;;22.64;64.36;100453.94;;;;-59
2020/08/27 11:32:29;;;;;;;5.99;1.94;;;;;;;22.64;64.33;100446.66;;;;-48
2020/08/27 11:35:29;;;;;;;7.81;2.01;;;;;;;22.65;64.34;100445.92;;;;-47
2020/08/27 11:38:29;;;;;;;4.65;1.77;;;;;;;22.67;64.42;100448.54;;;;-50
2020/08/27 11:41:29;;;;;;;6.97;1.72;;;;;;;22.65;64.47;100447.97;;;;-50
2020/08/27 11:44:29;;;;;;;3.78;1.84;;;;;;;22.64;64.42;100446.59;;;;-52
2020/08/27 11:47:29;;;;;;;4.99;1.68;;;;;;;22.64;64.42;100447.83;;;;-49
2020/08/27 11:50:29;;;;;;;4.69;1.95;;;;;;;22.64;64.38;100447.41;;;;-49
2020/08/27 11:53:29;;;;;;;4.53;1.85;;;;;;;22.64;64.37;100444.81;;;;-49
2020/08/27 11:56:29;;;;;;;6.30;1.91;;;;;;;22.63;64.36;100426.02;;;;-49
2020/08/27 11:59:29;;;;;;;4.76;1.70;;;;;;;22.63;64.31;100419.48;;;;-49
2020/08/27 12:02:29;;;;;;;6.08;1.85;;;;;;;22.62;64.35;100407.80;;;;-49
2020/08/27 12:05:29;;;;;;;6.49;1.68;;;;;;;22.62;64.32;100408.30;;;;-49
2020/08/27 12:08:29;;;;;;;3.91;1.71;;;;;;;22.62;64.41;100402.42;;;;-47
2020/08/27 12:11:29;;;;;;;5.07;1.87;;;;;;;22.64;64.39;100398.55;;;;-46
2020/08/27 12:14:29;;;;;;;5.39;1.87;;;;;;;22.65;64.46;100394.88;;;;-52
2020/08/27 12:17:29;;;;;;;3.79;1.69;;;;;;;22.66;64.48;100389.16;;;;-48
2020/08/27 12:20:29;;;;;;;5.15;1.80;;;;;;;22.69;64.52;100384.39;;;;-44
2020/08/27 12:23:29;;;;;;;4.66;1.82;;;;;;;22.69;64.52;100387.25;;;;-47
2020/08/27 12:26:29;;;;;;;4.07;1.71;;;;;;;22.71;64.54;100384.70;;;;-46
2020/08/27 12:29:29;;;;;;;6.14;1.83;;;;;;;22.73;64.54;100383.30;;;;-52
2020/08/27 12:32:29;;;;;;;5.25;1.99;;;;;;;22.74;64.54;100384.67;;;;-49
2020/08/27 12:35:29;;;;;;;4.02;1.71;;;;;;;22.73;64.52;100381.09;;;;-50
2020/08/27 12:38:29;;;;;;;5.05;1.75;;;;;;;22.72;64.58;100376.36;;;;-48
2020/08/27 12:41:29;;;;;;;4.67;1.71;;;;;;;22.72;64.59;100380.77;;;;-48
2020/08/27 12:44:29;;;;;;;7.23;2.01;;;;;;;22.70;64.64;100382.33;;;;-49
2020/08/27 12:47:29;;;;;;;5.65;1.79;;;;;;;22.71;64.44;100381.84;;;;-51
2020/08/27 12:50:29;;;;;;;6.53;1.87;;;;;;;22.72;64.30;100367.05;;;;-48
2020/08/27 12:53:29;;;;;;;4.81;1.70;;;;;;;22.73;64.32;100357.32;;;;-50
2020/08/27 12:56:29;;;;;;;4.18;1.77;;;;;;;22.73;64.18;100349.30;;;;-55
2020/08/27 12:59:29;;;;;;;4.63;1.69;;;;;;;22.77;64.24;100345.20;;;;-49
2020/08/27 13:02:29;;;;;;;5.31;1.81;;;;;;;22.77;64.39;100333.68;;;;-47
2020/08/27 13:05:29;;;;;;;5.97;1.79;;;;;;;22.78;64.36;100336.75;;;;-47
2020/08/27 13:08:29;;;;;;;4.57;1.88;;;;;;;22.79;64.43;100338.95;;;;-48
2020/08/27 13:11:29;;;;;;;6.78;1.85;;;;;;;22.79;64.48;100341.73;;;;-52
2020/08/27 13:14:29;;;;;;;4.09;1.87;;;;;;;22.81;64.48;100333.80;;;;-52
2020/08/27 13:17:29;;;;;;;3.28;1.69;;;;;;;22.82;64.51;100334.36;;;;-49
2020/08/27 13:20:29;;;;;;;3.27;1.77;;;;;;;22.83;64.57;100332.37;;;;-49
2020/08/27 13:23:29;;;;;;;4.12;1.80;;;;;;;22.83;64.56;100328.78;;;;-50
2020/08/27 13:26:29;;;;;;;3.91;1.62;;;;;;;22.83;64.61;100321.05;;;;-49
2020/08/27 13:29:29;;;;;;;3.83;1.87;;;;;;;22.84;64.60;100318.41;;;;-48
2020/08/27 13:32:29;;;;;;;19.79;2.04;;;;;;;22.84;64.61;100311.95;;;;-51
2020/08/27 13:35:29;;;;;;;4.15;1.90;;;;;;;22.85;64.64;100303.84;;;;-50
2020/08/27 13:38:29;;;;;;;4.19;1.82;;;;;;;22.86;64.62;100297.13;;;;-49
2020/08/27 13:41:29;;;;;;;10.04;2.19;;;;;;;22.87;64.85;100287.66;;;;-48
2020/08/27 13:44:29;;;;;;;11.75;2.27;;;;;;;22.87;64.71;100282.48;;;;-51
2020/08/27 13:47:29;;;;;;;13.31;2.29;;;;;;;22.86;64.68;100275.81;;;;-48
2020/08/27 13:50:29;;;;;;;8.35;2.15;;;;;;;22.87;64.37;100267.72;;;;-51
2020/08/27 13:53:29;;;;;;;9.27;1.91;;;;;;;22.87;64.49;100254.48;;;;-51
2020/08/27 13:56:29;;;;;;;8.99;2.05;;;;;;;22.86;64.36;100247.28;;;;-56
2020/08/27 13:59:29;;;;;;;9.12;1.85;;;;;;;22.86;64.45;100238.22;;;;-54
2020/08/27 14:02:29;;;;;;;6.41;2.19;;;;;;;22.86;64.40;100237.81;;;;-51
2020/08/27 14:05:29;;;;;;;10.21;1.99;;;;;;;22.86;64.37;100234.70;;;;-51
2020/08/27 14:08:29;;;;;;;4.91;1.99;;;;;;;22.84;64.38;100232.94;;;;-51
2020/08/27 14:11:29;;;;;;;4.47;1.95;;;;;;;22.84;64.34;100227.70;;;;-50
2020/08/27 14:14:29;;;;;;;10.85;2.05;;;;;;;22.83;64.31;100230.51;;;;-51
2020/08/27 14:17:29;;;;;;;4.83;1.87;;;;;;;22.83;64.26;100224.86;;;;-51
2020/08/27 14:20:29;;;;;;;5.99;1.86;;;;;;;22.82;64.28;100226.00;;;;-52
2020/08/27 14:23:29;;;;;;;8.71;2.01;;;;;;;22.82;64.33;100223.48;;;;-53
2020/08/27 14:26:29;;;;;;;8.11;2.15;;;;;;;22.81;64.30;100219.08;;;;-53
2020/08/27 14:29:29;;;;;;;6.69;1.88;;;;;;;22.82;64.27;100221.03;;;;-51
2020/08/27 14:32:29;;;;;;;5.41;1.80;;;;;;;22.81;64.32;100218.93;;;;-51
2020/08/27 14:35:29;;;;;;;4.61;1.67;;;;;;;22.81;64.33;100219.49;;;;-51
2020/08/27 14:38:29;;;;;;;3.85;1.74;;;;;;;22.79;64.35;100220.81;;;;-52
2020/08/27 14:41:29;;;;;;;5.01;2.01;;;;;;;22.79;64.31;100221.14;;;;-51
2020/08/27 14:44:29;;;;;;;4.81;1.71;;;;;;;22.79;64.35;100221.64;;;;-51
2020/08/27 14:47:29;;;;;;;5.13;1.79;;;;;;;22.79;64.34;100217.55;;;;-51
2020/08/27 14:50:29;;;;;;;5.69;1.90;;;;;;;22.78;64.30;100214.27;;;;-54
2020/08/27 14:53:29;;;;;;;4.41;1.73;;;;;;;22.78;64.32;100210.36;;;;-54
2020/08/27 14:56:29;;;;;;;4.21;1.76;;;;;;;22.78;64.28;100205.72;;;;-55
2020/08/27 14:59:29;;;;;;;3.53;1.73;;;;;;;22.77;64.28;100201.55;;;;-55
2020/08/27 15:02:29;;;;;;;4.47;1.62;;;;;;;22.77;64.30;100200.66;;;;-54
2020/08/27 15:05:29;;;;;;;4.84;1.76;;;;;;;22.77;64.36;100192.66;;;;-56
2020/08/27 15:08:29;;;;;;;3.05;1.71;;;;;;;22.76;64.32;100180.07;;;;-56
2020/08/27 15:11:29;;;;;;;4.06;1.70;;;;;;;22.75;64.26;100174.22;;;;-55
2020/08/27 15:14:29;;;;;;;3.77;1.75;;;;;;;22.76;64.23;100170.67;;;;-55
2020/08/27 15:17:29;;;;;;;2.81;1.59;;;;;;;22.75;64.29;100171.12;;;;-54
2020/08/27 15:20:29;;;;;;;4.83;1.69;;;;;;;22.75;64.33;100170.14;;;;-55
2020/08/27 15:23:29;;;;;;;3.67;1.50;;;;;;;22.74;64.35;100165.56;;;;-56
2020/08/27 15:26:29;;;;;;;3.41;1.83;;;;;;;22.74;64.36;100160.00;;;;-54
2020/08/27 15:29:29;;;;;;;3.68;1.61;;;;;;;22.73;64.41;100158.87;;;;-55
2020/08/27 15:32:29;;;;;;;3.87;1.58;;;;;;;22.73;64.40;100153.89;;;;-55
2020/08/27 15:35:29;;;;;;;3.76;1.83;;;;;;;22.74;64.36;100144.48;;;;-54
2020/08/27 15:38:29;;;;;;;2.60;1.47;;;;;;;22.73;64.30;100137.22;;;;-55
2020/08/27 15:41:29;;;;;;;3.95;1.64;;;;;;;22.74;64.51;100133.70;;;;-53
2020/08/27 15:44:29;;;;;;;3.20;1.60;;;;;;;22.75;64.61;100134.52;;;;-54
2020/08/27 15:47:29;;;;;;;3.47;1.70;;;;;;;22.78;64.66;100136.77;;;;-53
2020/08/27 15:50:29;;;;;;;4.35;1.65;;;;;;;22.78;64.72;100134.95;;;;-53
2020/08/27 15:53:29;;;;;;;2.97;1.67;;;;;;;22.80;64.72;100134.67;;;;-52
2020/08/27 15:56:29;;;;;;;2.99;1.54;;;;;;;22.82;64.83;100129.77;;;;-49
2020/08/27 15:59:29;;;;;;;2.73;1.50;;;;;;;22.82;65.06;100121.27;;;;-50
2020/08/27 16:02:29;;;;;;;3.18;1.76;;;;;;;22.83;64.97;100115.55;;;;-58
2020/08/27 16:05:29;;;;;;;6.17;1.64;;;;;;;22.84;65.00;100115.34;;;;-53
2020/08/27 16:08:29;;;;;;;6.13;1.70;;;;;;;22.85;65.05;100109.94;;;;-56
2020/08/27 16:15:29;;;;;;;8.84;1.77;;;;;;;22.87;65.29;100099.06;;;;-48
2020/08/27 16:18:29;;;;;;;2.61;1.61;;;;;;;22.88;65.10;100093.64;;;;-58
2020/08/27 16:21:29;;;;;;;3.29;1.61;;;;;;;22.87;65.31;100091.78;;;;-55
2020/08/27 16:24:29;;;;;;;3.59;1.57;;;;;;;22.86;65.25;100082.16;;;;-55
2020/08/27 16:27:29;;;;;;;3.38;1.64;;;;;;;22.86;65.13;100086.00;;;;-55
2020/08/27 16:30:29;;;;;;;4.13;1.69;;;;;;;22.86;65.11;100088.37;;;;-55
2020/08/27 16:33:29;;;;;;;4.33;1.68;;;;;;;22.86;65.03;100089.84;;;;-55
2020/08/27 16:36:29;;;;;;;4.15;1.55;;;;;;;22.85;65.02;100082.98;;;;-55
2020/08/27 16:39:29;;;;;;;5.80;1.66;;;;;;;22.84;64.96;100075.88;;;;-55
2020/08/27 16:42:29;;;;;;;3.17;1.58;;;;;;;22.84;64.98;100071.97;;;;-55
2020/08/27 16:45:29;;;;;;;2.03;1.42;;;;;;;22.83;64.91;100070.53;;;;-55